sensor_id;sensor_type;location;lat;lon;timestamp;P1;durP1;ratioP1;P2;durP2;ratioP2
5813;SDS011;2933;52.302;8.134;2022-07-11T00:04:30;4.57;;;4.17;;
5813;SDS011;2933;52.302;8.134;2022-07-11T00:09:32;7.00;;;5.33;;
5813;SDS011;2933;52.302;8.134;2022-07-11T00:14:35;4.30;;;3.90;;
5813;SDS011;2933;52.302;8.134;2022-07-11T00:19:39;5.50;;;4.80;;
5813;SDS011;2933;52.302;8.134;2022-07-11T00:24:41;6.33;;;4.80;;
5813;SDS011;2933;52.302;8.134;2022-07-11T00:29:44;6.30;;;5.13;;
5813;SDS011;2933;52.302;8.134;2022-07-11T00:34:45;7.13;;;4.77;;
5813;SDS011;2933;52.302;8.134;2022-07-11T00:39:48;8.73;;;4.87;;
5813;SDS011;2933;52.302;8.134;2022-07-11T00:44:51;5.70;;;5.20;;
5813;SDS011;2933;52.302;8.134;2022-07-11T00:49:52;10.10;;;5.10;;
5813;SDS011;2933;52.302;8.134;2022-07-11T00:54:54;6.47;;;4.77;;
5813;SDS011;2933;52.302;8.134;2022-07-11T00:59:58;7.27;;;5.70;;
5813;SDS011;2933;52.302;8.134;2022-07-11T01:05:00;6.03;;;5.50;;
5813;SDS011;2933;52.302;8.134;2022-07-11T01:10:02;5.90;;;5.30;;
5813;SDS011;2933;52.302;8.134;2022-07-11T01:15:05;10.50;;;5.30;;
5813;SDS011;2933;52.302;8.134;2022-07-11T01:20:08;9.37;;;5.53;;
5813;SDS011;2933;52.302;8.134;2022-07-11T01:25:13;14.10;;;5.70;;
5813;SDS011;2933;52.302;8.134;2022-07-11T01:30:30;13.77;;;6.00;;
5813;SDS011;2933;52.302;8.134;2022-07-11T01:35:32;6.50;;;5.90;;
5813;SDS011;2933;52.302;8.134;2022-07-11T01:40:35;12.50;;;6.23;;
5813;SDS011;2933;52.302;8.134;2022-07-11T01:45:36;7.50;;;6.47;;
5813;SDS011;2933;52.302;8.134;2022-07-11T01:50:38;7.97;;;6.00;;
5813;SDS011;2933;52.302;8.134;2022-07-11T01:55:41;10.70;;;6.80;;
5813;SDS011;2933;52.302;8.134;2022-07-11T02:00:43;8.63;;;6.67;;
5813;SDS011;2933;52.302;8.134;2022-07-11T02:05:44;10.80;;;6.47;;
5813;SDS011;2933;52.302;8.134;2022-07-11T02:10:48;7.13;;;6.43;;
5813;SDS011;2933;52.302;8.134;2022-07-11T02:15:50;12.10;;;6.53;;
5813;SDS011;2933;52.302;8.134;2022-07-11T02:20:53;12.60;;;7.00;;
5813;SDS011;2933;52.302;8.134;2022-07-11T02:25:56;12.47;;;7.73;;
5813;SDS011;2933;52.302;8.134;2022-07-11T02:30:58;15.70;;;7.20;;
5813;SDS011;2933;52.302;8.134;2022-07-11T02:35:59;10.73;;;6.90;;
5813;SDS011;2933;52.302;8.134;2022-07-11T02:41:02;12.67;;;7.77;;
5813;SDS011;2933;52.302;8.134;2022-07-11T02:46:04;10.50;;;5.83;;
5813;SDS011;2933;52.302;8.134;2022-07-11T02:51:06;13.30;;;6.97;;
5813;SDS011;2933;52.302;8.134;2022-07-11T02:56:09;7.47;;;6.37;;
5813;SDS011;2933;52.302;8.134;2022-07-11T03:01:10;15.30;;;6.43;;
5813;SDS011;2933;52.302;8.134;2022-07-11T03:06:12;8.67;;;6.40;;
5813;SDS011;2933;52.302;8.134;2022-07-11T03:11:14;6.47;;;5.63;;
5813;SDS011;2933;52.302;8.134;2022-07-11T03:16:16;10.73;;;5.90;;
5813;SDS011;2933;52.302;8.134;2022-07-11T03:21:18;6.13;;;5.53;;
5813;SDS011;2933;52.302;8.134;2022-07-11T03:26:21;8.63;;;5.37;;
5813;SDS011;2933;52.302;8.134;2022-07-11T03:31:22;9.77;;;6.50;;
5813;SDS011;2933;52.302;8.134;2022-07-11T03:36:24;7.43;;;5.40;;
5813;SDS011;2933;52.302;8.134;2022-07-11T03:41:27;18.00;;;4.70;;
5813;SDS011;2933;52.302;8.134;2022-07-11T03:46:28;11.13;;;4.97;;
5813;SDS011;2933;52.302;8.134;2022-07-11T03:51:30;7.00;;;4.30;;
5813;SDS011;2933;52.302;8.134;2022-07-11T03:56:33;3.37;;;3.00;;
5813;SDS011;2933;52.302;8.134;2022-07-11T04:01:35;14.73;;;3.10;;
5813;SDS011;2933;52.302;8.134;2022-07-11T04:06:36;2.87;;;2.67;;
5813;SDS011;2933;52.302;8.134;2022-07-11T04:11:39;3.30;;;3.10;;
5813;SDS011;2933;52.302;8.134;2022-07-11T04:16:41;5.30;;;2.93;;
5813;SDS011;2933;52.302;8.134;2022-07-11T04:21:42;7.80;;;3.33;;
5813;SDS011;2933;52.302;8.134;2022-07-11T04:26:45;3.80;;;3.60;;
5813;SDS011;2933;52.302;8.134;2022-07-11T04:31:47;3.47;;;3.17;;
5813;SDS011;2933;52.302;8.134;2022-07-11T04:36:50;3.47;;;3.30;;
5813;SDS011;2933;52.302;8.134;2022-07-11T04:41:52;3.47;;;3.20;;
5813;SDS011;2933;52.302;8.134;2022-07-11T04:46:54;8.33;;;3.80;;
5813;SDS011;2933;52.302;8.134;2022-07-11T04:51:56;3.80;;;3.50;;
5813;SDS011;2933;52.302;8.134;2022-07-11T04:56:59;3.30;;;3.10;;
5813;SDS011;2933;52.302;8.134;2022-07-11T05:02:00;3.60;;;3.37;;
5813;SDS011;2933;52.302;8.134;2022-07-11T05:07:02;4.20;;;3.57;;
5813;SDS011;2933;52.302;8.134;2022-07-11T05:12:06;7.27;;;3.87;;
5813;SDS011;2933;52.302;8.134;2022-07-11T05:17:08;3.73;;;3.53;;
5813;SDS011;2933;52.302;8.134;2022-07-11T05:22:09;8.33;;;3.87;;
5813;SDS011;2933;52.302;8.134;2022-07-11T05:27:13;3.57;;;3.20;;
5813;SDS011;2933;52.302;8.134;2022-07-11T05:32:14;5.23;;;3.40;;
5813;SDS011;2933;52.302;8.134;2022-07-11T05:37:16;3.20;;;3.10;;
5813;SDS011;2933;52.302;8.134;2022-07-11T05:42:19;3.80;;;2.63;;
5813;SDS011;2933;52.302;8.134;2022-07-11T05:47:20;2.87;;;2.57;;
5813;SDS011;2933;52.302;8.134;2022-07-11T05:52:22;3.87;;;2.50;;
5813;SDS011;2933;52.302;8.134;2022-07-11T05:57:24;2.40;;;2.30;;
5813;SDS011;2933;52.302;8.134;2022-07-11T06:02:26;4.03;;;2.53;;
5813;SDS011;2933;52.302;8.134;2022-07-11T06:07:27;2.10;;;2.00;;
5813;SDS011;2933;52.302;8.134;2022-07-11T06:12:48;2.10;;;1.90;;
5813;SDS011;2933;52.302;8.134;2022-07-11T06:17:50;4.10;;;2.10;;
5813;SDS011;2933;52.302;8.134;2022-07-11T06:22:51;2.40;;;2.30;;
5813;SDS011;2933;52.302;8.134;2022-07-11T06:27:54;2.37;;;2.17;;
5813;SDS011;2933;52.302;8.134;2022-07-11T06:32:57;7.57;;;2.70;;
5813;SDS011;2933;52.302;8.134;2022-07-11T06:37:59;2.53;;;2.43;;
5813;SDS011;2933;52.302;8.134;2022-07-11T06:43:02;2.70;;;2.00;;
5813;SDS011;2933;52.302;8.134;2022-07-11T06:48:03;2.57;;;2.20;;
5813;SDS011;2933;52.302;8.134;2022-07-11T06:53:05;2.83;;;2.63;;
5813;SDS011;2933;52.302;8.134;2022-07-11T06:58:08;2.53;;;2.33;;
5813;SDS011;2933;52.302;8.134;2022-07-11T07:03:10;1.87;;;1.77;;
5813;SDS011;2933;52.302;8.134;2022-07-11T07:08:11;2.13;;;1.93;;
5813;SDS011;2933;52.302;8.134;2022-07-11T07:13:14;1.80;;;1.70;;
5813;SDS011;2933;52.302;8.134;2022-07-11T07:18:16;1.67;;;1.57;;
5813;SDS011;2933;52.302;8.134;2022-07-11T07:23:17;4.37;;;1.90;;
5813;SDS011;2933;52.302;8.134;2022-07-11T07:28:20;2.00;;;1.53;;
5813;SDS011;2933;52.302;8.134;2022-07-11T07:33:22;1.83;;;1.73;;
5813;SDS011;2933;52.302;8.134;2022-07-11T07:38:24;2.77;;;2.60;;
5813;SDS011;2933;52.302;8.134;2022-07-11T07:43:27;2.33;;;1.90;;
5813;SDS011;2933;52.302;8.134;2022-07-11T07:48:28;2.20;;;2.10;;
5813;SDS011;2933;52.302;8.134;2022-07-11T07:53:30;1.80;;;1.70;;
5813;SDS011;2933;52.302;8.134;2022-07-11T07:58:33;1.57;;;1.57;;
5813;SDS011;2933;52.302;8.134;2022-07-11T08:03:34;1.30;;;1.20;;
5813;SDS011;2933;52.302;8.134;2022-07-11T08:08:36;1.60;;;1.10;;
5813;SDS011;2933;52.302;8.134;2022-07-11T08:13:39;1.10;;;1.10;;
5813;SDS011;2933;52.302;8.134;2022-07-11T08:18:40;1.63;;;1.53;;
5813;SDS011;2933;52.302;8.134;2022-07-11T08:23:42;1.50;;;1.40;;
5813;SDS011;2933;52.302;8.134;2022-07-11T08:28:49;1.73;;;1.73;;
5813;SDS011;2933;52.302;8.134;2022-07-11T08:33:53;1.73;;;1.73;;
5813;SDS011;2933;52.302;8.134;2022-07-11T08:38:57;2.07;;;1.60;;
5813;SDS011;2933;52.302;8.134;2022-07-11T08:44:00;2.20;;;2.00;;
5813;SDS011;2933;52.302;8.134;2022-07-11T08:49:03;2.00;;;1.90;;
5813;SDS011;2933;52.302;8.134;2022-07-11T08:54:05;1.50;;;1.40;;
5813;SDS011;2933;52.302;8.134;2022-07-11T08:59:08;1.40;;;1.30;;
5813;SDS011;2933;52.302;8.134;2022-07-11T09:04:10;1.33;;;1.30;;
5813;SDS011;2933;52.302;8.134;2022-07-11T09:09:13;1.27;;;1.17;;
5813;SDS011;2933;52.302;8.134;2022-07-11T09:14:20;1.23;;;1.23;;
5813;SDS011;2933;52.302;8.134;2022-07-11T09:19:24;1.13;;;1.13;;
5813;SDS011;2933;52.302;8.134;2022-07-11T09:24:26;1.50;;;1.50;;
5813;SDS011;2933;52.302;8.134;2022-07-11T09:29:47;1.20;;;1.20;;
5813;SDS011;2933;52.302;8.134;2022-07-11T09:34:59;0.83;;;0.83;;
5813;SDS011;2933;52.302;8.134;2022-07-11T09:40:09;1.43;;;1.00;;
5813;SDS011;2933;52.302;8.134;2022-07-11T09:45:14;1.40;;;1.30;;
5813;SDS011;2933;52.302;8.134;2022-07-11T09:50:19;0.90;;;0.90;;
5813;SDS011;2933;52.302;8.134;2022-07-11T09:55:22;1.13;;;1.13;;
5813;SDS011;2933;52.302;8.134;2022-07-11T10:00:25;1.03;;;0.93;;
5813;SDS011;2933;52.302;8.134;2022-07-11T10:05:27;1.47;;;1.33;;
5813;SDS011;2933;52.302;8.134;2022-07-11T10:10:30;1.00;;;1.00;;
5813;SDS011;2933;52.302;8.134;2022-07-11T10:15:35;1.20;;;1.10;;
5813;SDS011;2933;52.302;8.134;2022-07-11T10:20:39;0.80;;;0.80;;
5813;SDS011;2933;52.302;8.134;2022-07-11T10:25:44;0.90;;;0.90;;
5813;SDS011;2933;52.302;8.134;2022-07-11T10:30:52;1.13;;;1.10;;
5813;SDS011;2933;52.302;8.134;2022-07-11T10:35:56;0.70;;;0.70;;
5813;SDS011;2933;52.302;8.134;2022-07-11T10:40:58;0.80;;;0.80;;
5813;SDS011;2933;52.302;8.134;2022-07-11T10:46:01;0.73;;;0.73;;
5813;SDS011;2933;52.302;8.134;2022-07-11T10:51:05;1.10;;;1.10;;
5813;SDS011;2933;52.302;8.134;2022-07-11T10:56:27;1.10;;;1.10;;
5813;SDS011;2933;52.302;8.134;2022-07-11T11:02:07;1.00;;;1.00;;
5813;SDS011;2933;52.302;8.134;2022-07-11T11:23:35;1.70;;;1.60;;
5813;SDS011;2933;52.302;8.134;2022-07-11T11:28:38;1.67;;;1.57;;
5813;SDS011;2933;52.302;8.134;2022-07-11T11:33:57;2.20;;;1.20;;
5813;SDS011;2933;52.302;8.134;2022-07-11T11:38:59;2.10;;;1.30;;
5813;SDS011;2933;52.302;8.134;2022-07-11T11:44:01;1.57;;;1.57;;
5813;SDS011;2933;52.302;8.134;2022-07-11T11:49:04;1.90;;;1.80;;
5813;SDS011;2933;52.302;8.134;2022-07-11T11:54:06;1.90;;;1.80;;
5813;SDS011;2933;52.302;8.134;2022-07-11T11:59:08;1.50;;;1.50;;
5813;SDS011;2933;52.302;8.134;2022-07-11T12:04:14;2.00;;;1.90;;
5813;SDS011;2933;52.302;8.134;2022-07-11T12:09:17;2.10;;;2.00;;
5813;SDS011;2933;52.302;8.134;2022-07-11T12:14:20;10.43;;;1.73;;
5813;SDS011;2933;52.302;8.134;2022-07-11T12:19:23;1.87;;;1.80;;
5813;SDS011;2933;52.302;8.134;2022-07-11T12:24:26;2.30;;;2.10;;
5813;SDS011;2933;52.302;8.134;2022-07-11T12:29:28;3.83;;;1.60;;
5813;SDS011;2933;52.302;8.134;2022-07-11T12:34:42;2.10;;;2.00;;
5813;SDS011;2933;52.302;8.134;2022-07-11T12:39:48;1.67;;;1.57;;
5813;SDS011;2933;52.302;8.134;2022-07-11T12:44:55;1.40;;;1.40;;
5813;SDS011;2933;52.302;8.134;2022-07-11T12:50:11;1.30;;;1.30;;
5813;SDS011;2933;52.302;8.134;2022-07-11T12:55:21;1.20;;;1.20;;
5813;SDS011;2933;52.302;8.134;2022-07-11T13:00:24;1.40;;;1.30;;
5813;SDS011;2933;52.302;8.134;2022-07-11T13:05:27;1.23;;;1.13;;
5813;SDS011;2933;52.302;8.134;2022-07-11T13:10:28;1.23;;;1.20;;
5813;SDS011;2933;52.302;8.134;2022-07-11T13:15:50;0.90;;;0.90;;
5813;SDS011;2933;52.302;8.134;2022-07-11T13:20:53;1.40;;;1.40;;
5813;SDS011;2933;52.302;8.134;2022-07-11T13:25:55;1.17;;;1.17;;
5813;SDS011;2933;52.302;8.134;2022-07-11T13:30:57;0.90;;;0.90;;
5813;SDS011;2933;52.302;8.134;2022-07-11T13:36:00;3.60;;;1.17;;
5813;SDS011;2933;52.302;8.134;2022-07-11T13:41:02;1.30;;;1.30;;
5813;SDS011;2933;52.302;8.134;2022-07-11T13:46:04;1.53;;;1.20;;
5813;SDS011;2933;52.302;8.134;2022-07-11T13:51:07;2.63;;;1.53;;
5813;SDS011;2933;52.302;8.134;2022-07-11T13:56:09;1.40;;;1.40;;
5813;SDS011;2933;52.302;8.134;2022-07-11T14:01:11;2.93;;;1.40;;
5813;SDS011;2933;52.302;8.134;2022-07-11T14:06:14;1.50;;;1.50;;
5813;SDS011;2933;52.302;8.134;2022-07-11T14:11:15;2.00;;;1.90;;
5813;SDS011;2933;52.302;8.134;2022-07-11T14:16:17;1.93;;;1.83;;
5813;SDS011;2933;52.302;8.134;2022-07-11T14:21:21;2.50;;;2.30;;
5813;SDS011;2933;52.302;8.134;2022-07-11T14:26:22;1.30;;;1.30;;
5813;SDS011;2933;52.302;8.134;2022-07-11T14:31:24;1.30;;;1.30;;
5813;SDS011;2933;52.302;8.134;2022-07-11T14:36:27;1.43;;;1.33;;
5813;SDS011;2933;52.302;8.134;2022-07-11T14:41:28;1.10;;;1.10;;
5813;SDS011;2933;52.302;8.134;2022-07-11T14:46:30;1.67;;;1.17;;
5813;SDS011;2933;52.302;8.134;2022-07-11T14:51:33;0.90;;;0.90;;
5813;SDS011;2933;52.302;8.134;2022-07-11T14:56:35;0.80;;;0.80;;
5813;SDS011;2933;52.302;8.134;2022-07-11T15:01:37;1.63;;;0.70;;
5813;SDS011;2933;52.302;8.134;2022-07-11T15:06:40;0.77;;;0.77;;
5813;SDS011;2933;52.302;8.134;2022-07-11T15:11:59;1.50;;;0.63;;
5813;SDS011;2933;52.302;8.134;2022-07-11T15:17:14;1.33;;;0.90;;
5813;SDS011;2933;52.302;8.134;2022-07-11T15:22:17;1.20;;;0.80;;
5813;SDS011;2933;52.302;8.134;2022-07-11T15:27:21;0.70;;;0.70;;
5813;SDS011;2933;52.302;8.134;2022-07-11T15:32:23;0.83;;;0.83;;
5813;SDS011;2933;52.302;8.134;2022-07-11T15:37:28;1.23;;;0.70;;
5813;SDS011;2933;52.302;8.134;2022-07-11T15:42:30;0.70;;;0.70;;
5813;SDS011;2933;52.302;8.134;2022-07-11T15:52:35;1.27;;;0.80;;
5813;SDS011;2933;52.302;8.134;2022-07-11T15:57:37;0.80;;;0.80;;
5813;SDS011;2933;52.302;8.134;2022-07-11T16:02:39;1.30;;;1.17;;
5813;SDS011;2933;52.302;8.134;2022-07-11T16:07:42;0.70;;;0.70;;
5813;SDS011;2933;52.302;8.134;2022-07-11T16:12:44;0.90;;;0.90;;
5813;SDS011;2933;52.302;8.134;2022-07-11T16:17:46;2.27;;;0.87;;
5813;SDS011;2933;52.302;8.134;2022-07-11T16:22:49;1.00;;;0.60;;
5813;SDS011;2933;52.302;8.134;2022-07-11T16:27:50;0.60;;;0.60;;
5813;SDS011;2933;52.302;8.134;2022-07-11T16:32:52;0.80;;;0.80;;
5813;SDS011;2933;52.302;8.134;2022-07-11T16:37:55;0.67;;;0.67;;
5813;SDS011;2933;52.302;8.134;2022-07-11T16:42:58;0.70;;;0.70;;
5813;SDS011;2933;52.302;8.134;2022-07-11T16:48:21;0.70;;;0.70;;
5813;SDS011;2933;52.302;8.134;2022-07-11T16:53:25;2.20;;;0.60;;
5813;SDS011;2933;52.302;8.134;2022-07-11T16:58:26;2.87;;;0.87;;
5813;SDS011;2933;52.302;8.134;2022-07-11T17:03:28;0.50;;;0.50;;
5813;SDS011;2933;52.302;8.134;2022-07-11T17:08:31;0.70;;;0.70;;
5813;SDS011;2933;52.302;8.134;2022-07-11T17:13:45;3.80;;;0.50;;
5813;SDS011;2933;52.302;8.134;2022-07-11T17:18:46;0.70;;;0.70;;
5813;SDS011;2933;52.302;8.134;2022-07-11T17:23:49;0.50;;;0.50;;
5813;SDS011;2933;52.302;8.134;2022-07-11T17:28:52;0.70;;;0.70;;
5813;SDS011;2933;52.302;8.134;2022-07-11T17:33:53;0.60;;;0.60;;
5813;SDS011;2933;52.302;8.134;2022-07-11T17:38:56;0.50;;;0.50;;
5813;SDS011;2933;52.302;8.134;2022-07-11T17:43:58;1.60;;;0.60;;
5813;SDS011;2933;52.302;8.134;2022-07-11T17:48:59;0.50;;;0.50;;
5813;SDS011;2933;52.302;8.134;2022-07-11T17:54:02;0.63;;;0.63;;
5813;SDS011;2933;52.302;8.134;2022-07-11T17:59:04;0.60;;;0.60;;
5813;SDS011;2933;52.302;8.134;2022-07-11T18:04:06;0.60;;;0.60;;
5813;SDS011;2933;52.302;8.134;2022-07-11T18:09:08;0.60;;;0.60;;
5813;SDS011;2933;52.302;8.134;2022-07-11T18:14:13;0.60;;;0.50;;
5813;SDS011;2933;52.302;8.134;2022-07-11T18:19:15;0.50;;;0.50;;
5813;SDS011;2933;52.302;8.134;2022-07-11T18:24:18;0.60;;;0.60;;
5813;SDS011;2933;52.302;8.134;2022-07-11T18:29:19;0.60;;;0.60;;
5813;SDS011;2933;52.302;8.134;2022-07-11T18:34:21;0.60;;;0.60;;
5813;SDS011;2933;52.302;8.134;2022-07-11T18:39:24;1.63;;;0.70;;
5813;SDS011;2933;52.302;8.134;2022-07-11T18:44:43;2.13;;;0.80;;
5813;SDS011;2933;52.302;8.134;2022-07-11T18:49:45;0.80;;;0.80;;
5813;SDS011;2933;52.302;8.134;2022-07-11T18:54:52;0.90;;;0.90;;
5813;SDS011;2933;52.302;8.134;2022-07-11T18:59:55;0.73;;;0.73;;
5813;SDS011;2933;52.302;8.134;2022-07-11T19:04:56;2.00;;;0.83;;
5813;SDS011;2933;52.302;8.134;2022-07-11T19:10:00;0.90;;;0.90;;
5813;SDS011;2933;52.302;8.134;2022-07-11T19:15:02;1.37;;;0.93;;
5813;SDS011;2933;52.302;8.134;2022-07-11T19:20:04;0.97;;;0.97;;
5813;SDS011;2933;52.302;8.134;2022-07-11T19:25:09;0.90;;;0.90;;
5813;SDS011;2933;52.302;8.134;2022-07-11T19:30:11;0.80;;;0.80;;
5813;SDS011;2933;52.302;8.134;2022-07-11T19:35:13;0.80;;;0.80;;
5813;SDS011;2933;52.302;8.134;2022-07-11T19:40:16;1.00;;;1.00;;
5813;SDS011;2933;52.302;8.134;2022-07-11T19:45:17;2.23;;;1.10;;
5813;SDS011;2933;52.302;8.134;2022-07-11T19:50:19;1.20;;;1.10;;
5813;SDS011;2933;52.302;8.134;2022-07-11T19:55:22;2.87;;;0.93;;
5813;SDS011;2933;52.302;8.134;2022-07-11T20:00:41;1.10;;;1.10;;
5813;SDS011;2933;52.302;8.134;2022-07-11T20:05:43;0.77;;;0.77;;
5813;SDS011;2933;52.302;8.134;2022-07-11T20:10:47;1.90;;;1.20;;
5813;SDS011;2933;52.302;8.134;2022-07-11T20:15:48;1.10;;;1.00;;
5813;SDS011;2933;52.302;8.134;2022-07-11T20:20:50;0.90;;;0.90;;
5813;SDS011;2933;52.302;8.134;2022-07-11T20:25:53;2.40;;;1.27;;
5813;SDS011;2933;52.302;8.134;2022-07-11T20:30:57;1.23;;;1.13;;
5813;SDS011;2933;52.302;8.134;2022-07-11T20:35:58;1.20;;;1.20;;
5813;SDS011;2933;52.302;8.134;2022-07-11T20:41:01;1.30;;;1.20;;
5813;SDS011;2933;52.302;8.134;2022-07-11T20:46:03;1.30;;;1.30;;
5813;SDS011;2933;52.302;8.134;2022-07-11T20:51:05;1.30;;;1.30;;
5813;SDS011;2933;52.302;8.134;2022-07-11T20:56:08;1.43;;;1.30;;
5813;SDS011;2933;52.302;8.134;2022-07-11T21:01:09;1.50;;;1.40;;
5813;SDS011;2933;52.302;8.134;2022-07-11T21:06:11;1.00;;;1.00;;
5813;SDS011;2933;52.302;8.134;2022-07-11T21:11:14;1.93;;;1.80;;
5813;SDS011;2933;52.302;8.134;2022-07-11T21:16:15;1.23;;;1.17;;
5813;SDS011;2933;52.302;8.134;2022-07-11T21:21:17;2.17;;;1.50;;
5813;SDS011;2933;52.302;8.134;2022-07-11T21:26:20;2.10;;;1.30;;
5813;SDS011;2933;52.302;8.134;2022-07-11T21:31:22;1.37;;;1.37;;
5813;SDS011;2933;52.302;8.134;2022-07-11T21:36:24;1.40;;;1.40;;
5813;SDS011;2933;52.302;8.134;2022-07-11T21:41:27;1.53;;;1.47;;
5813;SDS011;2933;52.302;8.134;2022-07-11T21:46:28;1.43;;;1.43;;
5813;SDS011;2933;52.302;8.134;2022-07-11T21:51:30;1.63;;;1.60;;
5813;SDS011;2933;52.302;8.134;2022-07-11T21:56:33;2.00;;;1.90;;
5813;SDS011;2933;52.302;8.134;2022-07-11T22:01:34;1.63;;;1.53;;
5813;SDS011;2933;52.302;8.134;2022-07-11T22:06:36;1.90;;;1.80;;
5813;SDS011;2933;52.302;8.134;2022-07-11T22:11:39;4.23;;;2.93;;
5813;SDS011;2933;52.302;8.134;2022-07-11T22:16:41;2.33;;;2.13;;
5813;SDS011;2933;52.302;8.134;2022-07-11T22:21:43;1.93;;;1.80;;
5813;SDS011;2933;52.302;8.134;2022-07-11T22:26:46;1.23;;;1.23;;
5813;SDS011;2933;52.302;8.134;2022-07-11T22:31:47;1.60;;;1.60;;
5813;SDS011;2933;52.302;8.134;2022-07-11T22:36:49;1.97;;;1.80;;
5813;SDS011;2933;52.302;8.134;2022-07-11T22:41:52;2.00;;;1.90;;
5813;SDS011;2933;52.302;8.134;2022-07-11T22:46:54;5.70;;;1.37;;
5813;SDS011;2933;52.302;8.134;2022-07-11T22:51:55;1.60;;;1.50;;
5813;SDS011;2933;52.302;8.134;2022-07-11T22:56:58;3.03;;;1.37;;
5813;SDS011;2933;52.302;8.134;2022-07-11T23:02:00;1.90;;;1.80;;
5813;SDS011;2933;52.302;8.134;2022-07-11T23:07:01;1.90;;;1.80;;
5813;SDS011;2933;52.302;8.134;2022-07-11T23:12:05;1.87;;;1.77;;
5813;SDS011;2933;52.302;8.134;2022-07-11T23:17:07;3.07;;;1.70;;
5813;SDS011;2933;52.302;8.134;2022-07-11T23:22:09;3.50;;;1.73;;
5813;SDS011;2933;52.302;8.134;2022-07-11T23:27:12;1.53;;;1.53;;
5813;SDS011;2933;52.302;8.134;2022-07-11T23:32:14;1.70;;;1.60;;
5813;SDS011;2933;52.302;8.134;2022-07-11T23:37:15;1.87;;;1.77;;
5813;SDS011;2933;52.302;8.134;2022-07-11T23:42:18;1.73;;;1.63;;
5813;SDS011;2933;52.302;8.134;2022-07-11T23:47:20;1.77;;;1.70;;
5813;SDS011;2933;52.302;8.134;2022-07-11T23:52:21;1.80;;;1.70;;
5813;SDS011;2933;52.302;8.134;2022-07-11T23:57:24;1.70;;;1.60;;
